Time;durP1;ratioP1;P1;durP2;ratioP2;P2;SDS_P1;SDS_P2;PMS_P1;PMS_P2;Temp;Humidity;BMP_temperature;BMP_pressure;BME280_temperature;BME280_humidity;BME280_pressure;Samples;Min_cycle;Max_cycle;Signal;HPM_P1;HPM_P2
2023/10/16 00:02:22;;;;;;;2.50;0.43;;;;;;;;;;5055271;28;20049;-47
2023/10/16 00:04:48;;;;;;;1.30;0.32;;;;;;;;;;5060145;28;20033;-46
2023/10/16 00:07:21;;;;;;;2.10;0.63;;;;;;;;;;5058793;28;20076;-50
2023/10/16 00:09:49;;;;;;;1.40;0.10;;;;;;;;;;5057988;28;20047;-49
2023/10/16 00:12:19;;;;;;;0.57;0.20;;;;;;;;;;5056612;28;20045;-45
2023/10/16 00:14:47;;;;;;;1.05;0.40;;;;;;;;;;5058233;28;20056;-47
2023/10/16 00:17:15;;;;;;;0.90;0.40;;;;;;;;;;5048165;28;20037;-44
2023/10/16 00:19:44;;;;;;;2.30;0.73;;;;;;;;;;5063841;28;20116;-47
2023/10/16 00:22:18;;;;;;;0.60;0.22;;;;;;;;;;5051601;28;20037;-47
2023/10/16 00:24:47;;;;;;;0.90;0.70;;;;;;;;;;5067665;28;20025;-46
2023/10/16 00:27:16;;;;;;;1.20;0.20;;;;;;;;;;5056970;28;20055;-45
2023/10/16 00:29:42;;;;;;;2.03;0.40;;;;;;;;;;5053393;28;20474;-49
2023/10/16 00:32:08;;;;;;;2.08;0.63;;;;;;;;;;5048491;28;20045;-51
2023/10/16 00:34:34;;;;;;;1.50;0.40;;;;;;;;;;5055361;28;20025;-46
2023/10/16 00:37:01;;;;;;;1.52;0.40;;;;;;;;;;5065582;28;20037;-48
2023/10/16 00:39:30;;;;;;;0.52;0.20;;;;;;;;;;5058666;28;20025;-47
2023/10/16 00:41:57;;;;;;;1.75;0.45;;;;;;;;;;5060496;28;20041;-48
2023/10/16 00:44:34;;;;;;;3.10;0.80;;;;;;;;;;5057320;28;20033;-46
2023/10/16 00:47:04;;;;;;;1.70;1.10;;;;;;;;;;5055128;28;20041;-46
2023/10/16 00:49:35;;;;;;;1.85;0.47;;;;;;;;;;5056715;28;20025;-47
2023/10/16 00:52:03;;;;;;;2.30;1.42;;;;;;;;;;5058082;28;20079;-48
2023/10/16 00:54:31;;;;;;;3.28;1.40;;;;;;;;;;5057163;28;20025;-49
2023/10/16 00:57:00;;;;;;;1.00;0.47;;;;;;;;;;5054853;28;20033;-47
2023/10/16 00:59:26;;;;;;;2.65;0.80;;;;;;;;;;5055801;28;20072;-48
2023/10/16 01:02:05;;;;;;;1.38;0.20;;;;;;;;;;5052694;28;20029;-46
2023/10/16 01:04:31;;;;;;;2.38;0.52;;;;;;;;;;5058351;28;20033;-48
2023/10/16 01:06:57;;;;;;;1.45;0.70;;;;;;;;;;5056635;28;20080;-49
2023/10/16 01:09:22;;;;;;;1.10;0.73;;;;;;;;;;5056821;28;20671;-48
2023/10/16 01:11:52;;;;;;;2.28;0.70;;;;;;;;;;5061544;28;20061;-47
2023/10/16 01:14:18;;;;;;;0.85;0.77;;;;;;;;;;5062346;28;20450;-47
2023/10/16 01:16:44;;;;;;;0.80;0.30;;;;;;;;;;5055174;28;20037;-49
2023/10/16 01:19:10;;;;;;;2.97;1.60;;;;;;;;;;5056151;28;20036;-50
2023/10/16 01:21:36;;;;;;;1.25;0.68;;;;;;;;;;5059086;28;20041;-49
2023/10/16 01:24:03;;;;;;;1.40;0.68;;;;;;;;;;5053891;28;20075;-48
2023/10/16 01:26:31;;;;;;;2.67;1.23;;;;;;;;;;5053503;28;20032;-47
2023/10/16 01:28:57;;;;;;;1.52;0.47;;;;;;;;;;5052397;28;20071;-48
2023/10/16 01:31:23;;;;;;;1.45;0.50;;;;;;;;;;5055173;28;20025;-52
2023/10/16 01:33:51;;;;;;;2.10;0.45;;;;;;;;;;5052005;28;20024;-47
2023/10/16 01:36:16;;;;;;;1.27;1.08;;;;;;;;;;5053973;28;20039;-48
2023/10/16 01:38:42;;;;;;;1.40;0.90;;;;;;;;;;5049533;28;20115;-51
2023/10/16 01:41:14;;;;;;;2.42;0.82;;;;;;;;;;5048659;28;20017;-50
2023/10/16 01:43:43;;;;;;;1.38;0.88;;;;;;;;;;5056955;28;20060;-46
2023/10/16 01:46:11;;;;;;;1.00;0.82;;;;;;;;;;5060516;28;20111;-50
2023/10/16 01:48:44;;;;;;;1.73;0.93;;;;;;;;;;5057454;28;20051;-48
2023/10/16 01:51:18;;;;;;;2.20;0.85;;;;;;;;;;5060728;28;20482;-49
2023/10/16 01:53:44;;;;;;;1.60;0.60;;;;;;;;;;5053666;28;20049;-51
2023/10/16 01:56:13;;;;;;;1.73;0.70;;;;;;;;;;5057383;28;20037;-47
2023/10/16 01:58:44;;;;;;;1.88;1.52;;;;;;;;;;5047179;28;20033;-46
2023/10/16 02:01:20;;;;;;;2.13;0.95;;;;;;;;;;5059786;28;20036;-52
2023/10/16 02:03:48;;;;;;;2.40;1.15;;;;;;;;;;5051686;28;20127;-47
2023/10/16 02:06:15;;;;;;;1.42;0.88;;;;;;;;;;5049023;28;20074;-49
2023/10/16 02:08:43;;;;;;;3.00;0.88;;;;;;;;;;5055431;28;20045;-48
2023/10/16 02:11:10;;;;;;;1.58;1.08;;;;;;;;;;5054928;28;20029;-50
2023/10/16 02:13:36;;;;;;;1.25;0.47;;;;;;;;;;5048139;28;20033;-48
2023/10/16 02:16:06;;;;;;;1.48;0.80;;;;;;;;;;5055391;28;20055;-48
2023/10/16 02:18:37;;;;;;;2.30;0.40;;;;;;;;;;5060257;28;20049;-48
2023/10/16 02:21:11;;;;;;;2.28;0.95;;;;;;;;;;5060396;28;20103;-49
2023/10/16 02:23:37;;;;;;;1.65;1.00;;;;;;;;;;5061453;28;20040;-49
2023/10/16 02:26:05;;;;;;;2.33;1.02;;;;;;;;;;5065634;28;20025;-47
2023/10/16 02:28:32;;;;;;;2.15;1.65;;;;;;;;;;5055246;28;20092;-48
2023/10/16 02:31:14;;;;;;;1.42;0.85;;;;;;;;;;5050463;28;20029;-46
2023/10/16 02:33:50;;;;;;;1.70;0.65;;;;;;;;;;5061638;28;20033;-50
2023/10/16 02:36:18;;;;;;;1.23;1.10;;;;;;;;;;5053937;28;20043;-46
2023/10/16 02:38:44;;;;;;;1.30;1.10;;;;;;;;;;5059512;28;20048;-50
2023/10/16 02:41:10;;;;;;;1.92;0.93;;;;;;;;;;5062839;28;20029;-52
2023/10/16 02:43:41;;;;;;;1.40;0.88;;;;;;;;;;5056173;28;20033;-46
2023/10/16 02:46:11;;;;;;;0.68;0.43;;;;;;;;;;5054209;28;20021;-46
2023/10/16 02:48:43;;;;;;;2.78;0.88;;;;;;;;;;5053881;28;20049;-48
2023/10/16 02:51:09;;;;;;;1.33;0.90;;;;;;;;;;5060694;28;20024;-50
2023/10/16 02:53:47;;;;;;;1.92;0.80;;;;;;;;;;5057915;28;20040;-46
2023/10/16 02:56:17;;;;;;;1.83;1.27;;;;;;;;;;5053458;28;20493;-50
2023/10/16 02:58:43;;;;;;;2.33;0.85;;;;;;;;;;5047609;28;20041;-48
2023/10/16 03:01:18;;;;;;;0.95;0.55;;;;;;;;;;5055391;28;20040;-48
2023/10/16 03:03:45;;;;;;;1.80;0.73;;;;;;;;;;5052742;28;20053;-47
2023/10/16 03:06:12;;;;;;;1.80;1.05;;;;;;;;;;5049308;28;20029;-48
2023/10/16 03:08:38;;;;;;;2.63;0.85;;;;;;;;;;5048179;28;20049;-50
2023/10/16 03:11:06;;;;;;;1.35;0.95;;;;;;;;;;5057608;28;20029;-51
2023/10/16 03:13:39;;;;;;;1.83;0.32;;;;;;;;;;5053760;28;20060;-48
2023/10/16 03:16:15;;;;;;;1.25;1.15;;;;;;;;;;5056340;28;20060;-48
2023/10/16 03:18:43;;;;;;;2.15;0.55;;;;;;;;;;5067025;28;20068;-51
2023/10/16 03:23:43;;;;;;;2.60;0.80;;;;;;;;;;5058346;28;20044;-48
2023/10/16 03:26:25;;;;;;;1.52;0.85;;;;;;;;;;5068419;28;20504;-48
2023/10/16 03:28:53;;;;;;;2.83;1.38;;;;;;;;;;5053884;28;20494;-47
2023/10/16 03:31:19;;;;;;;;;;;;;;;;;;5057642;28;20025;-48
2023/10/16 03:33:45;;;;;;;2.40;0.93;;;;;;;;;;5058581;28;19927;-47
2023/10/16 03:36:11;;;;;;;1.58;0.65;;;;;;;;;;5057409;28;20033;-47
2023/10/16 03:38:37;;;;;;;2.08;0.95;;;;;;;;;;5060282;28;20438;-46
2023/10/16 03:41:12;;;;;;;1.25;0.77;;;;;;;;;;5062961;28;20085;-46
2023/10/16 03:43:42;;;;;;;2.90;1.75;;;;;;;;;;5061274;28;20033;-48
2023/10/16 03:46:10;;;;;;;1.75;0.88;;;;;;;;;;5052904;28;20114;-45
2023/10/16 03:48:39;;;;;;;2.17;1.17;;;;;;;;;;5065804;28;20029;-49
2023/10/16 03:51:08;;;;;;;1.27;0.70;;;;;;;;;;5058418;28;20027;-48
2023/10/16 03:53:35;;;;;;;3.03;1.10;;;;;;;;;;5048090;28;20502;-46
2023/10/16 03:56:02;;;;;;;1.60;1.42;;;;;;;;;;5065852;28;20086;-50
2023/10/16 03:58:27;;;;;;;1.73;0.90;;;;;;;;;;5057268;28;20037;-49
2023/10/16 04:00:53;;;;;;;2.65;1.17;;;;;;;;;;5042784;28;20086;-50
2023/10/16 04:03:19;;;;;;;1.92;1.58;;;;;;;;;;5062987;28;20431;-49
2023/10/16 04:05:46;;;;;;;1.27;1.17;;;;;;;;;;5052244;28;20111;-51
2023/10/16 04:08:23;;;;;;;3.33;1.05;;;;;;;;;;5057800;28;20045;-50
2023/10/16 04:10:49;;;;;;;2.30;1.20;;;;;;;;;;5055552;28;20088;-52
2023/10/16 04:13:18;;;;;;;1.95;1.30;;;;;;;;;;5059506;28;20037;-49
2023/10/16 04:20:55;;;;;;;1.83;0.63;;;;;;;;;;5062041;28;20032;-48
2023/10/16 04:23:37;;;;;;;3.30;1.00;;;;;;;;;;5060403;28;20040;-50
2023/10/16 04:26:46;;;;;;;2.15;0.60;;;;;;;;;;5058273;28;20032;-46
2023/10/16 04:32:07;;;;;;;1.63;0.90;;;;;;;;;;5055271;28;20055;-45
2023/10/16 04:34:34;;;;;;;1.40;0.82;;;;;;;;;;5058123;28;20028;-51
2023/10/16 05:03:44;;;;;;;1.10;0.40;;;;;;;;;;5050159;28;20049;-51
2023/10/16 05:06:27;;;;;;;2.92;0.65;;;;;;;;;;5061105;28;20059;-50
2023/10/16 05:17:57;;;;;;;1.80;0.82;;;;;;;;;;5050413;28;20090;-45
2023/10/16 06:14:47;;;;;;;10.35;1.55;;;;;;;;;;5045580;28;20544;-47
2023/10/16 06:17:15;;;;;;;6.70;2.80;;;;;;;;;;5052245;28;20048;-47
2023/10/16 06:19:44;;;;;;;6.60;1.05;;;;;;;;;;5048625;28;20041;-51
2023/10/16 06:22:10;;;;;;;3.03;0.93;;;;;;;;;;5052369;28;20123;-46
2023/10/16 06:24:36;;;;;;;3.08;0.82;;;;;;;;;;5049050;28;20445;-52
2023/10/16 06:27:10;;;;;;;3.63;1.52;;;;;;;;;;5060676;28;20040;-46
2023/10/16 06:32:37;;;;;;;2.83;1.35;;;;;;;;;;5035730;28;20093;-48
2023/10/16 06:35:07;;;;;;;4.10;1.80;;;;;;;;;;5041768;28;20031;-51
2023/10/16 06:37:32;;;;;;;3.47;1.63;;;;;;;;;;5047755;28;20033;-46
2023/10/16 06:40:00;;;;;;;4.57;1.83;;;;;;;;;;5055961;28;20120;-48
2023/10/16 06:42:29;;;;;;;3.28;0.77;;;;;;;;;;5063249;28;20044;-50
2023/10/16 06:44:55;;;;;;;2.50;1.10;;;;;;;;;;5054069;28;20095;-50
2023/10/16 06:47:35;;;;;;;3.70;1.15;;;;;;;;;;5058264;28;20111;-49
2023/10/16 06:50:01;;;;;;;3.03;2.13;;;;;;;;;;5057697;28;20107;-50
2023/10/16 06:52:26;;;;;;;7.03;1.95;;;;;;;;;;5053786;28;20114;-47
2023/10/16 06:54:52;;;;;;;3.42;1.65;;;;;;;;;;5061358;28;20033;-50
2023/10/16 06:57:19;;;;;;;2.72;1.25;;;;;;;;;;5059493;28;20060;-48
2023/10/16 06:59:45;;;;;;;3.28;1.27;;;;;;;;;;5061183;28;20711;-49
2023/10/16 07:02:19;;;;;;;3.38;1.33;;;;;;;;;;5059574;28;20037;-51
2023/10/16 07:04:46;;;;;;;1.38;0.73;;;;;;;;;;5059656;28;20024;-49
2023/10/16 07:07:16;;;;;;;3.42;1.55;;;;;;;;;;5056828;28;20036;-48
2023/10/16 07:09:47;;;;;;;2.58;1.50;;;;;;;;;;5062275;28;20051;-51
2023/10/16 07:12:16;;;;;;;3.53;1.55;;;;;;;;;;5053674;28;20064;-47
2023/10/16 07:14:55;;;;;;;3.70;3.17;;;;;;;;;;5059365;28;20112;-50
2023/10/16 07:17:29;;;;;;;8.00;3.42;;;;;;;;;;5057519;28;20037;-49
2023/10/16 07:19:58;;;;;;;3.75;2.30;;;;;;;;;;5055894;28;20068;-48
2023/10/16 07:22:31;;;;;;;3.40;1.40;;;;;;;;;;5061778;28;20036;-49
2023/10/16 07:24:57;;;;;;;3.28;1.35;;;;;;;;;;5058223;28;20078;-48
2023/10/16 07:27:23;;;;;;;3.20;2.17;;;;;;;;;;5058784;28;20080;-50
2023/10/16 07:29:49;;;;;;;6.88;2.20;;;;;;;;;;5057562;28;20021;-50
2023/10/16 07:32:14;;;;;;;2.50;1.13;;;;;;;;;;5057802;28;20029;-51
2023/10/16 07:34:40;;;;;;;3.05;1.55;;;;;;;;;;5054394;28;20106;-50
2023/10/16 07:37:08;;;;;;;4.07;2.08;;;;;;;;;;5060037;28;20124;-47
2023/10/16 07:39:34;;;;;;;2.58;1.60;;;;;;;;;;5056541;28;20029;-49
2023/10/16 07:42:02;;;;;;;3.33;1.27;;;;;;;;;;5059136;28;20044;-51
2023/10/16 07:44:28;;;;;;;2.45;0.90;;;;;;;;;;5068629;28;20113;-50
2023/10/16 07:46:53;;;;;;;2.63;1.42;;;;;;;;;;5054213;28;20057;-46
2023/10/16 07:49:25;;;;;;;5.25;2.00;;;;;;;;;;5060120;28;20128;-49
2023/10/16 07:51:55;;;;;;;3.88;1.60;;;;;;;;;;5053289;28;20033;-46
2023/10/16 07:54:23;;;;;;;4.65;1.08;;;;;;;;;;5058273;28;20040;-48
2023/10/16 07:56:50;;;;;;;3.25;2.10;;;;;;;;;;5061197;28;20041;-45
2023/10/16 07:59:19;;;;;;;6.47;1.08;;;;;;;;;;5066459;28;20021;-49
2023/10/16 08:01:57;;;;;;;2.47;0.93;;;;;;;;;;5059290;28;20033;-48
2023/10/16 08:06:52;;;;;;;3.25;1.40;;;;;;;;;;5060451;28;20092;-46
2023/10/16 08:11:57;;;;;;;5.60;1.98;;;;;;;;;;5056185;28;20577;-45
2023/10/16 08:14:26;;;;;;;2.83;1.10;;;;;;;;;;5057007;28;20508;-51
2023/10/16 08:16:58;;;;;;;1.63;1.23;;;;;;;;;;5058224;28;20376;-48
2023/10/16 08:19:25;;;;;;;4.53;2.88;;;;;;;;;;5074074;28;20033;-50
2023/10/16 08:21:54;;;;;;;2.58;0.77;;;;;;;;;;5056340;28;20033;-47
2023/10/16 08:24:21;;;;;;;1.33;1.10;;;;;;;;;;5057453;28;20025;-48
2023/10/16 08:26:48;;;;;;;7.03;1.65;;;;;;;;;;5061488;28;20041;-52
2023/10/16 08:34:35;;;;;;;6.68;2.67;;;;;;;;;;5052540;28;20086;-47
2023/10/16 08:37:03;;;;;;;5.57;1.85;;;;;;;;;;5063512;28;20052;-51
2023/10/16 08:39:36;;;;;;;6.53;1.63;;;;;;;;;;5060921;28;20585;-52
2023/10/16 08:42:11;;;;;;;9.27;2.42;;;;;;;;;;5059208;28;20040;-47
2023/10/16 08:44:36;;;;;;;;;;;;;;;;;;5051938;28;20286;-45
2023/10/16 08:49:27;;;;;;;6.22;2.03;;;;;;;;;;5059302;28;20033;-48
2023/10/16 08:52:04;;;;;;;5.53;1.02;;;;;;;;;;5058419;28;20037;-47
2023/10/16 08:54:55;;;;;;;8.63;2.78;;;;;;;;;;5059240;28;20028;-47
2023/10/16 08:57:25;;;;;;;9.13;4.18;;;;;;;;;;5057054;28;20484;-47
2023/10/16 08:59:51;;;;;;;16.25;7.18;;;;;;;;;;5052965;28;20028;-49
2023/10/16 09:02:20;;;;;;;13.98;10.98;;;;;;;;;;5053807;28;20033;-46
2023/10/16 09:04:49;;;;;;;9.07;3.80;;;;;;;;;;5054197;28;20101;-48
2023/10/16 09:07:18;;;;;;;8.00;2.25;;;;;;;;;;5047352;28;20067;-47
2023/10/16 09:09:44;;;;;;;;;;;;;;;;;;5057231;28;20513;-47
2023/10/16 09:12:12;;;;;;;5.53;2.58;;;;;;;;;;5054288;28;19916;-46
2023/10/16 09:14:40;;;;;;;6.20;2.70;;;;;;;;;;5049943;28;20029;-48
2023/10/16 09:17:07;;;;;;;5.32;2.35;;;;;;;;;;5054102;28;20061;-50
2023/10/16 09:19:34;;;;;;;7.10;2.72;;;;;;;;;;5056317;28;20025;-48
2023/10/16 09:22:08;;;;;;;7.78;1.95;;;;;;;;;;5066791;28;20045;-47
2023/10/16 09:24:34;;;;;;;6.80;4.38;;;;;;;;;;5056442;28;20037;-47
2023/10/16 09:27:16;;;;;;;13.02;4.45;;;;;;;;;;5057699;28;20041;-46
2023/10/16 09:29:56;;;;;;;7.22;3.45;;;;;;;;;;5053280;28;20029;-51
2023/10/16 09:32:25;;;;;;;9.32;3.28;;;;;;;;;;5059283;28;20044;-46
2023/10/16 09:35:15;;;;;;;4.70;1.50;;;;;;;;;;5050355;28;20033;-49
2023/10/16 09:37:40;;;;;;;4.93;1.45;;;;;;;;;;5053714;28;20501;-49
2023/10/16 09:40:19;;;;;;;2.40;0.77;;;;;;;;;;5047074;28;20091;-49
2023/10/16 09:42:56;;;;;;;5.75;1.67;;;;;;;;;;5056008;28;20033;-48
2023/10/16 09:45:25;;;;;;;8.55;2.42;;;;;;;;;;5053581;28;20534;-50
2023/10/16 09:47:55;;;;;;;4.70;1.77;;;;;;;;;;5056561;28;20036;-51
2023/10/16 09:50:22;;;;;;;5.47;2.05;;;;;;;;;;5053522;28;20916;-48
2023/10/16 09:52:48;;;;;;;3.67;1.73;;;;;;;;;;5048377;28;20029;-47
2023/10/16 09:55:18;;;;;;;4.70;1.60;;;;;;;;;;5056687;28;20039;-48
2023/10/16 09:57:50;;;;;;;4.47;2.08;;;;;;;;;;5057131;28;20041;-48
2023/10/16 10:00:28;;;;;;;4.80;1.63;;;;;;;;;;5058665;28;20036;-50
2023/10/16 10:03:00;;;;;;;6.85;1.33;;;;;;;;;;5056264;28;20036;-47
2023/10/16 10:05:41;;;;;;;7.53;1.88;;;;;;;;;;5062392;28;20067;-46
2023/10/16 10:08:18;;;;;;;5.32;2.00;;;;;;;;;;5053117;28;20045;-49
2023/10/16 10:11:16;;;;;;;8.10;1.75;;;;;;;;;;5057716;28;20040;-52
2023/10/16 10:13:47;;;;;;;4.18;1.80;;;;;;;;;;5047522;28;20049;-49
2023/10/16 10:16:20;;;;;;;5.38;1.67;;;;;;;;;;5054372;28;20097;-48
2023/10/16 10:18:47;;;;;;;4.30;1.88;;;;;;;;;;5054634;28;20041;-49
2023/10/16 10:21:27;;;;;;;6.93;1.60;;;;;;;;;;5058622;28;20056;-50
2023/10/16 10:24:00;;;;;;;5.30;1.77;;;;;;;;;;5056029;28;20111;-48
2023/10/16 10:26:26;;;;;;;6.70;1.83;;;;;;;;;;5055948;28;20032;-49
2023/10/16 10:29:09;;;;;;;6.45;1.60;;;;;;;;;;5053248;28;20482;-49
2023/10/16 10:31:36;;;;;;;4.82;1.65;;;;;;;;;;5051682;28;20081;-51
2023/10/16 10:34:27;;;;;;;5.57;1.38;;;;;;;;;;5053195;28;20109;-50
2023/10/16 10:36:53;;;;;;;3.75;1.95;;;;;;;;;;5064050;28;20134;-46
2023/10/16 10:39:23;;;;;;;7.47;1.67;;;;;;;;;;5052893;28;20064;-47
2023/10/16 10:41:54;;;;;;;5.90;1.80;;;;;;;;;;5049204;28;20044;-49
2023/10/16 10:44:28;;;;;;;4.68;1.85;;;;;;;;;;5058147;28;20497;-52
2023/10/16 10:46:54;;;;;;;5.78;0.75;;;;;;;;;;5054239;28;20809;-47
2023/10/16 10:49:39;;;;;;;7.13;1.90;;;;;;;;;;5057826;28;20020;-47
2023/10/16 10:52:06;;;;;;;5.95;2.00;;;;;;;;;;5052704;28;20048;-48
2023/10/16 10:54:33;;;;;;;5.68;1.73;;;;;;;;;;5051422;28;20027;-50
2023/10/16 10:57:06;;;;;;;3.35;1.40;;;;;;;;;;5048985;28;20041;-51
2023/10/16 10:59:40;;;;;;;10.02;2.53;;;;;;;;;;5054707;28;20033;-48
2023/10/16 11:04:45;;;;;;;5.55;2.10;;;;;;;;;;5047397;28;20017;-49
2023/10/16 11:07:26;;;;;;;6.47;1.38;;;;;;;;;;5062121;28;20080;-50
2023/10/16 11:09:57;;;;;;;5.18;1.75;;;;;;;;;;5051754;28;20075;-50
2023/10/16 11:12:26;;;;;;;6.65;1.63;;;;;;;;;;5051688;28;20048;-51
2023/10/16 11:14:53;;;;;;;6.00;1.33;;;;;;;;;;5056886;28;20033;-46
2023/10/16 11:17:32;;;;;;;4.65;0.95;;;;;;;;;;5053726;28;20068;-50
2023/10/16 11:20:11;;;;;;;4.25;1.85;;;;;;;;;;5059985;28;20025;-48
2023/10/16 11:22:43;;;;;;;6.95;3.25;;;;;;;;;;5046576;28;20070;-48
2023/10/16 11:25:12;;;;;;;9.00;1.95;;;;;;;;;;5053739;28;20111;-47
2023/10/16 11:27:41;;;;;;;4.72;1.63;;;;;;;;;;5061022;28;20104;-47
2023/10/16 11:30:12;;;;;;;1.88;0.82;;;;;;;;;;5054545;28;20546;-49
2023/10/16 11:32:42;;;;;;;5.63;1.80;;;;;;;;;;5055255;28;20530;-51
2023/10/16 11:35:15;;;;;;;5.68;1.20;;;;;;;;;;5053363;28;20106;-47
2023/10/16 11:37:43;;;;;;;4.68;1.38;;;;;;;;;;5069804;28;20066;-50
2023/10/16 11:40:20;;;;;;;5.03;1.08;;;;;;;;;;5058815;28;20104;-48
2023/10/16 11:42:49;;;;;;;4.38;0.95;;;;;;;;;;5059378;28;20036;-49
2023/10/16 11:45:23;;;;;;;4.18;1.38;;;;;;;;;;5048880;28;20478;-46
2023/10/16 11:48:18;;;;;;;3.35;0.90;;;;;;;;;;5051954;28;20499;-48
2023/10/16 11:50:43;;;;;;;4.20;1.30;;;;;;;;;;5059810;28;20091;-49
2023/10/16 11:53:09;;;;;;;8.40;1.40;;;;;;;;;;5058499;28;20502;-50
2023/10/16 11:55:38;;;;;;;7.07;1.55;;;;;;;;;;5059914;28;20497;-48
2023/10/16 11:58:06;;;;;;;4.30;1.38;;;;;;;;;;5057955;28;20041;-47
2023/10/16 12:00:35;;;;;;;3.05;0.70;;;;;;;;;;5061170;28;20059;-45
2023/10/16 12:03:00;;;;;;;6.07;1.35;;;;;;;;;;5055256;28;20045;-47
2023/10/16 12:05:28;;;;;;;5.03;0.80;;;;;;;;;;5060662;28;20035;-48
2023/10/16 12:07:56;;;;;;;8.35;0.88;;;;;;;;;;5060980;28;20060;-46
2023/10/16 12:10:22;;;;;;;;;;;;;;;;;;5057874;28;20028;-47
2023/10/16 12:12:49;;;;;;;4.93;0.98;;;;;;;;;;5054293;28;19921;-51
2023/10/16 12:15:15;;;;;;;3.83;1.60;;;;;;;;;;5049860;28;20513;-49
2023/10/16 12:17:43;;;;;;;4.80;1.35;;;;;;;;;;5056556;28;20049;-48
2023/10/16 12:20:10;;;;;;;5.43;1.35;;;;;;;;;;5057433;28;20039;-47
2023/10/16 12:22:39;;;;;;;3.75;1.23;;;;;;;;;;5063016;28;20040;-50
2023/10/16 12:25:10;;;;;;;;;;;;;;;;;;5054618;28;20029;-46
2023/10/16 12:27:40;;;;;;;6.40;1.38;;;;;;;;;;5053509;28;19916;-50
2023/10/16 12:30:12;;;;;;;4.03;1.10;;;;;;;;;;5055246;28;20064;-50
2023/10/16 12:32:38;;;;;;;11.07;2.38;;;;;;;;;;5056990;28;20096;-47
2023/10/16 12:35:08;;;;;;;6.93;2.40;;;;;;;;;;5052041;28;20485;-46
2023/10/16 12:37:33;;;;;;;6.18;1.67;;;;;;;;;;5054347;28;20041;-48
2023/10/16 12:39:59;;;;;;;3.30;1.40;;;;;;;;;;5048384;28;20063;-49
2023/10/16 12:42:24;;;;;;;4.60;1.60;;;;;;;;;;5055105;28;20182;-49
2023/10/16 12:44:50;;;;;;;4.43;1.90;;;;;;;;;;5061761;28;20166;-49
2023/10/16 12:47:15;;;;;;;3.78;1.13;;;;;;;;;;5055660;28;20056;-49
2023/10/16 12:49:42;;;;;;;5.63;1.13;;;;;;;;;;5054772;28;20378;-50
2023/10/16 12:52:10;;;;;;;4.80;1.65;;;;;;;;;;5061501;28;20139;-49
2023/10/16 12:54:41;;;;;;;7.88;1.20;;;;;;;;;;5046611;28;20053;-49
2023/10/16 12:57:09;;;;;;;5.55;1.30;;;;;;;;;;5055537;28;20123;-50
2023/10/16 12:59:36;;;;;;;6.35;1.33;;;;;;;;;;5056782;28;20135;-46
2023/10/16 13:02:04;;;;;;;4.18;1.05;;;;;;;;;;5053521;28;20044;-47
2023/10/16 13:04:33;;;;;;;5.07;1.13;;;;;;;;;;5048594;28;20071;-50
2023/10/16 13:06:59;;;;;;;4.25;1.90;;;;;;;;;;5057913;28;20053;-50
2023/10/16 13:09:25;;;;;;;6.25;1.50;;;;;;;;;;5057329;28;20382;-51
2023/10/16 13:11:51;;;;;;;2.72;1.77;;;;;;;;;;5057768;28;20137;-51
2023/10/16 13:14:17;;;;;;;3.35;1.67;;;;;;;;;;5056840;28;20052;-47
2023/10/16 13:16:53;;;;;;;6.80;1.10;;;;;;;;;;5057956;28;20037;-48
2023/10/16 13:19:19;;;;;;;4.25;1.30;;;;;;;;;;5065827;28;20020;-46
2023/10/16 13:21:46;;;;;;;10.75;1.50;;;;;;;;;;5058123;28;20033;-47
2023/10/16 13:24:16;;;;;;;3.72;1.02;;;;;;;;;;5054435;28;20033;-48
2023/10/16 13:26:42;;;;;;;4.65;0.77;;;;;;;;;;5057745;28;20069;-47
2023/10/16 13:29:11;;;;;;;8.10;2.45;;;;;;;;;;5053956;28;20021;-52
2023/10/16 13:31:46;;;;;;;6.28;1.25;;;;;;;;;;5052979;28;20128;-50
2023/10/16 13:34:15;;;;;;;9.93;2.50;;;;;;;;;;5048411;28;20036;-48
2023/10/16 13:37:00;;;;;;;6.53;1.38;;;;;;;;;;5055558;28;20033;-50
2023/10/16 13:39:26;;;;;;;5.00;1.30;;;;;;;;;;5057637;28;20108;-50
2023/10/16 13:41:52;;;;;;;13.90;2.15;;;;;;;;;;5061303;28;20071;-47
2023/10/16 13:44:19;;;;;;;9.18;1.67;;;;;;;;;;5055837;28;20090;-50
2023/10/16 13:46:48;;;;;;;5.78;1.30;;;;;;;;;;5047083;28;20036;-50
2023/10/16 13:49:14;;;;;;;6.13;1.23;;;;;;;;;;5056561;28;20024;-49
2023/10/16 13:51:40;;;;;;;3.70;1.38;;;;;;;;;;5060257;28;20517;-46
2023/10/16 13:54:11;;;;;;;2.75;0.95;;;;;;;;;;5054999;28;20029;-48
2023/10/16 13:56:38;;;;;;;5.03;1.52;;;;;;;;;;5053653;28;20044;-51
2023/10/16 13:59:03;;;;;;;8.60;1.77;;;;;;;;;;5055240;28;20113;-49
2023/10/16 14:01:30;;;;;;;4.45;1.45;;;;;;;;;;5061487;28;20044;-47
2023/10/16 14:03:58;;;;;;;6.25;0.80;;;;;;;;;;5043776;28;20069;-48
2023/10/16 14:06:25;;;;;;;5.13;0.93;;;;;;;;;;5053770;28;20029;-49
2023/10/16 14:08:51;;;;;;;4.75;1.08;;;;;;;;;;5053745;28;20156;-48
2023/10/16 14:11:16;;;;;;;3.58;1.13;;;;;;;;;;5042572;28;20049;-44
2023/10/16 14:13:42;;;;;;;4.32;1.17;;;;;;;;;;5045604;28;20083;-51
2023/10/16 14:16:09;;;;;;;5.22;1.15;;;;;;;;;;5047191;28;20025;-49
2023/10/16 14:18:35;;;;;;;7.72;2.05;;;;;;;;;;5044340;28;20565;-47
2023/10/16 14:21:08;;;;;;;5.55;0.75;;;;;;;;;;5042475;28;20036;-48
2023/10/16 14:23:34;;;;;;;9.02;1.45;;;;;;;;;;5045356;28;20080;-50
2023/10/16 14:26:00;;;;;;;3.78;1.67;;;;;;;;;;5053066;28;20029;-49
2023/10/16 14:28:27;;;;;;;3.47;1.48;;;;;;;;;;5054838;28;20029;-47
2023/10/16 14:30:59;;;;;;;7.32;1.55;;;;;;;;;;5052619;28;20024;-49
2023/10/16 14:33:30;;;;;;;4.45;1.67;;;;;;;;;;5055580;28;20053;-50
2023/10/16 14:35:57;;;;;;;3.30;1.38;;;;;;;;;;5053131;28;20076;-49
2023/10/16 14:38:24;;;;;;;4.35;1.23;;;;;;;;;;5050867;28;20049;-51
2023/10/16 14:40:49;;;;;;;3.85;0.93;;;;;;;;;;5051727;28;20025;-49
2023/10/16 14:43:17;;;;;;;8.50;2.08;;;;;;;;;;5053831;28;20044;-49
2023/10/16 14:45:49;;;;;;;3.00;0.80;;;;;;;;;;5057624;28;20578;-46
2023/10/16 14:48:18;;;;;;;3.83;1.08;;;;;;;;;;5048942;28;20038;-49
2023/10/16 14:50:47;;;;;;;2.28;0.93;;;;;;;;;;5046206;28;20071;-48
2023/10/16 14:53:13;;;;;;;7.50;1.50;;;;;;;;;;5047757;28;20045;-48
2023/10/16 14:55:39;;;;;;;3.97;1.80;;;;;;;;;;5051715;28;20032;-48
2023/10/16 14:58:05;;;;;;;4.35;1.50;;;;;;;;;;5045568;28;20041;-48
2023/10/16 15:00:41;;;;;;;4.10;1.42;;;;;;;;;;5050519;28;20394;-47
2023/10/16 15:03:10;;;;;;;7.75;1.98;;;;;;;;;;5047788;28;20073;-50
2023/10/16 15:05:39;;;;;;;2.17;1.40;;;;;;;;;;5049999;28;20029;-49
2023/10/16 15:08:06;;;;;;;3.63;0.75;;;;;;;;;;5045600;28;20156;-51
2023/10/16 15:10:32;;;;;;;6.47;1.67;;;;;;;;;;5047341;28;20036;-46
2023/10/16 15:12:58;;;;;;;4.10;1.27;;;;;;;;;;5033862;28;20074;-53
2023/10/16 15:15:23;;;;;;;4.32;2.33;;;;;;;;;;5048501;28;20463;-45
2023/10/16 15:17:49;;;;;;;9.07;1.70;;;;;;;;;;5048200;28;20041;-50
2023/10/16 15:20:14;;;;;;;2.95;1.17;;;;;;;;;;5045315;28;20048;-48
2023/10/16 15:22:46;;;;;;;7.80;1.50;;;;;;;;;;5051737;28;20076;-47
2023/10/16 15:25:12;;;;;;;5.25;1.70;;;;;;;;;;5059028;28;20131;-49
2023/10/16 15:27:42;;;;;;;8.55;1.85;;;;;;;;;;5053547;28;20049;-47
2023/10/16 15:30:12;;;;;;;8.00;2.35;;;;;;;;;;5062959;28;20497;-49
2023/10/16 15:32:39;;;;;;;6.13;2.17;;;;;;;;;;5058447;28;20074;-48
2023/10/16 15:35:08;;;;;;;6.00;2.67;;;;;;;;;;5059844;28;20732;-49
2023/10/16 15:37:38;;;;;;;8.02;1.80;;;;;;;;;;5058122;28;20043;-46
2023/10/16 15:40:04;;;;;;;6.10;1.98;;;;;;;;;;5062479;28;20028;-50
2023/10/16 15:42:30;;;;;;;4.65;2.03;;;;;;;;;;5059385;28;20491;-47
2023/10/16 15:44:55;;;;;;;6.22;2.70;;;;;;;;;;5059662;28;20088;-48
2023/10/16 15:47:23;;;;;;;8.27;2.70;;;;;;;;;;5060812;28;20044;-47
2023/10/16 15:49:48;;;;;;;5.10;2.08;;;;;;;;;;5059955;28;20574;-50
2023/10/16 15:52:14;;;;;;;4.88;2.28;;;;;;;;;;5056257;28;20040;-49
2023/10/16 15:54:42;;;;;;;7.45;1.95;;;;;;;;;;5052128;28;20028;-50
2023/10/16 15:57:07;;;;;;;5.53;2.05;;;;;;;;;;5064075;28;20037;-49
2023/10/16 15:59:34;;;;;;;4.68;1.90;;;;;;;;;;5060960;28;20453;-46
2023/10/16 16:02:00;;;;;;;5.35;2.65;;;;;;;;;;5053985;28;20037;-49
2023/10/16 16:04:26;;;;;;;5.95;2.33;;;;;;;;;;5047469;28;20028;-48
2023/10/16 16:06:51;;;;;;;6.90;1.90;;;;;;;;;;5055938;28;20032;-49
2023/10/16 16:09:18;;;;;;;6.35;2.15;;;;;;;;;;5062977;28;20028;-48
2023/10/16 16:11:44;;;;;;;5.68;2.30;;;;;;;;;;5056455;28;20483;-47
2023/10/16 16:14:12;;;;;;;5.82;2.20;;;;;;;;;;5054923;28;20123;-50
2023/10/16 16:16:39;;;;;;;10.18;2.25;;;;;;;;;;5053908;28;20055;-46
2023/10/16 16:19:07;;;;;;;3.50;1.58;;;;;;;;;;5054587;28;20025;-48
2023/10/16 16:21:32;;;;;;;3.88;1.80;;;;;;;;;;5049450;28;20095;-48
2023/10/16 16:24:01;;;;;;;4.70;1.48;;;;;;;;;;5062443;28;20037;-48
2023/10/16 16:26:27;;;;;;;4.00;1.85;;;;;;;;;;5051383;28;20029;-47
2023/10/16 16:28:52;;;;;;;6.25;2.63;;;;;;;;;;5061206;28;20033;-46
2023/10/16 16:31:20;;;;;;;8.00;2.42;;;;;;;;;;5049066;28;20033;-47
2023/10/16 16:33:45;;;;;;;5.60;1.42;;;;;;;;;;5056661;28;20356;-46
2023/10/16 16:36:14;;;;;;;4.88;2.17;;;;;;;;;;5058474;28;20084;-47
2023/10/16 16:38:39;;;;;;;6.07;2.50;;;;;;;;;;5059630;28;20061;-50
2023/10/16 16:41:05;;;;;;;5.35;2.13;;;;;;;;;;5052871;28;20078;-49
2023/10/16 16:43:31;;;;;;;5.25;2.15;;;;;;;;;;5052176;28;20041;-47
2023/10/16 16:45:56;;;;;;;5.15;2.45;;;;;;;;;;5047201;28;21547;-48
2023/10/16 16:48:22;;;;;;;4.97;1.75;;;;;;;;;;5046848;28;20451;-48
2023/10/16 16:50:48;;;;;;;8.48;2.95;;;;;;;;;;5057776;28;20449;-50
2023/10/16 16:53:14;;;;;;;6.18;2.13;;;;;;;;;;5048174;28;20128;-48
2023/10/16 16:55:40;;;;;;;6.60;3.00;;;;;;;;;;5048082;28;20029;-47